sensor_id;sensor_type;location;lat;lon;timestamp;temperature;humidity
360;DHT22;168;48.872;9.226;2022-07-24T00:00:19;24.10;85.80
360;DHT22;168;48.872;9.226;2022-07-24T00:02:47;24.10;85.80
360;DHT22;168;48.872;9.226;2022-07-24T00:05:14;24.00;85.60
360;DHT22;168;48.872;9.226;2022-07-24T00:07:42;24.10;85.50
360;DHT22;168;48.872;9.226;2022-07-24T00:10:10;24.10;85.40
360;DHT22;168;48.872;9.226;2022-07-24T00:12:38;24.10;85.50
360;DHT22;168;48.872;9.226;2022-07-24T00:15:08;24.10;85.30
360;DHT22;168;48.872;9.226;2022-07-24T00:17:36;24.00;85.50
360;DHT22;168;48.872;9.226;2022-07-24T00:20:05;24.00;85.50
360;DHT22;168;48.872;9.226;2022-07-24T00:22:33;24.00;85.40
360;DHT22;168;48.872;9.226;2022-07-24T00:25:00;24.00;85.40
360;DHT22;168;48.872;9.226;2022-07-24T00:27:27;24.00;85.40
360;DHT22;168;48.872;9.226;2022-07-24T00:29:55;23.90;85.50
360;DHT22;168;48.872;9.226;2022-07-24T00:32:24;23.80;85.80
360;DHT22;168;48.872;9.226;2022-07-24T00:34:51;23.80;85.90
360;DHT22;168;48.872;9.226;2022-07-24T00:37:19;23.70;86.00
360;DHT22;168;48.872;9.226;2022-07-24T00:39:46;23.70;86.20
360;DHT22;168;48.872;9.226;2022-07-24T00:42:14;23.70;86.40
360;DHT22;168;48.872;9.226;2022-07-24T00:44:42;23.60;86.50
360;DHT22;168;48.872;9.226;2022-07-24T00:47:09;23.60;86.60
360;DHT22;168;48.872;9.226;2022-07-24T00:49:38;23.50;86.80
360;DHT22;168;48.872;9.226;2022-07-24T00:52:06;23.50;86.90
360;DHT22;168;48.872;9.226;2022-07-24T00:54:33;23.40;87.00
360;DHT22;168;48.872;9.226;2022-07-24T00:57:01;23.30;87.20
360;DHT22;168;48.872;9.226;2022-07-24T00:59:28;23.30;87.30
360;DHT22;168;48.872;9.226;2022-07-24T01:01:56;23.30;87.30
360;DHT22;168;48.872;9.226;2022-07-24T01:04:23;23.20;87.60
360;DHT22;168;48.872;9.226;2022-07-24T01:06:52;23.10;87.80
360;DHT22;168;48.872;9.226;2022-07-24T01:09:20;23.00;88.00
360;DHT22;168;48.872;9.226;2022-07-24T01:11:48;23.00;88.00
360;DHT22;168;48.872;9.226;2022-07-24T01:14:15;22.90;88.20
360;DHT22;168;48.872;9.226;2022-07-24T01:16:43;22.80;88.30
360;DHT22;168;48.872;9.226;2022-07-24T01:19:11;22.70;88.40
360;DHT22;168;48.872;9.226;2022-07-24T01:21:45;22.80;88.50
360;DHT22;168;48.872;9.226;2022-07-24T01:24:12;22.80;88.50
360;DHT22;168;48.872;9.226;2022-07-24T01:26:40;22.70;88.50
360;DHT22;168;48.872;9.226;2022-07-24T01:29:08;22.70;88.60
360;DHT22;168;48.872;9.226;2022-07-24T01:31:35;22.60;88.70
360;DHT22;168;48.872;9.226;2022-07-24T01:34:03;22.60;88.80
360;DHT22;168;48.872;9.226;2022-07-24T01:36:31;22.50;88.90
360;DHT22;168;48.872;9.226;2022-07-24T01:39:02;22.50;88.90
360;DHT22;168;48.872;9.226;2022-07-24T01:41:29;22.50;89.10
360;DHT22;168;48.872;9.226;2022-07-24T01:43:57;22.40;89.20
360;DHT22;168;48.872;9.226;2022-07-24T01:46:26;22.40;89.30
360;DHT22;168;48.872;9.226;2022-07-24T01:48:53;22.40;89.30
360;DHT22;168;48.872;9.226;2022-07-24T01:51:21;22.40;89.30
360;DHT22;168;48.872;9.226;2022-07-24T01:53:48;22.40;89.30
360;DHT22;168;48.872;9.226;2022-07-24T01:56:17;22.50;89.20
360;DHT22;168;48.872;9.226;2022-07-24T01:58:45;22.60;88.90
360;DHT22;168;48.872;9.226;2022-07-24T02:01:12;22.70;88.70
360;DHT22;168;48.872;9.226;2022-07-24T02:03:40;22.80;88.50
360;DHT22;168;48.872;9.226;2022-07-24T02:06:07;22.80;88.50
360;DHT22;168;48.872;9.226;2022-07-24T02:08:35;23.00;88.30
360;DHT22;168;48.872;9.226;2022-07-24T02:11:02;23.00;88.00
360;DHT22;168;48.872;9.226;2022-07-24T02:13:31;23.00;88.00
360;DHT22;168;48.872;9.226;2022-07-24T02:15:59;23.00;88.00
360;DHT22;168;48.872;9.226;2022-07-24T02:18:27;23.10;88.00
360;DHT22;168;48.872;9.226;2022-07-24T02:20:54;23.10;87.80
360;DHT22;168;48.872;9.226;2022-07-24T02:23:22;23.00;87.90
360;DHT22;168;48.872;9.226;2022-07-24T02:25:50;23.00;88.00
360;DHT22;168;48.872;9.226;2022-07-24T02:28:18;23.00;88.00
360;DHT22;168;48.872;9.226;2022-07-24T02:30:47;23.00;87.90
360;DHT22;168;48.872;9.226;2022-07-24T02:33:15;22.90;88.10
360;DHT22;168;48.872;9.226;2022-07-24T02:35:43;22.90;88.10
360;DHT22;168;48.872;9.226;2022-07-24T02:38:10;22.90;88.00
360;DHT22;168;48.872;9.226;2022-07-24T02:40:38;22.90;88.10
360;DHT22;168;48.872;9.226;2022-07-24T02:43:05;22.90;88.00
360;DHT22;168;48.872;9.226;2022-07-24T02:45:33;22.90;87.90
360;DHT22;168;48.872;9.226;2022-07-24T02:48:02;22.80;88.10
360;DHT22;168;48.872;9.226;2022-07-24T02:50:34;22.70;88.30
360;DHT22;168;48.872;9.226;2022-07-24T02:53:05;22.60;88.40
360;DHT22;168;48.872;9.226;2022-07-24T02:55:32;22.50;88.70
360;DHT22;168;48.872;9.226;2022-07-24T02:58:00;22.40;88.80
360;DHT22;168;48.872;9.226;2022-07-24T03:00:27;22.40;88.90
360;DHT22;168;48.872;9.226;2022-07-24T03:02:54;22.40;89.00
360;DHT22;168;48.872;9.226;2022-07-24T03:05:23;22.50;88.80
360;DHT22;168;48.872;9.226;2022-07-24T03:07:51;22.50;88.70
360;DHT22;168;48.872;9.226;2022-07-24T03:10:19;22.50;88.80
360;DHT22;168;48.872;9.226;2022-07-24T03:12:47;22.40;88.90
360;DHT22;168;48.872;9.226;2022-07-24T03:15:15;22.30;89.00
360;DHT22;168;48.872;9.226;2022-07-24T03:17:48;22.20;89.10
360;DHT22;168;48.872;9.226;2022-07-24T03:20:16;22.10;89.30
360;DHT22;168;48.872;9.226;2022-07-24T03:22:45;22.00;89.50
360;DHT22;168;48.872;9.226;2022-07-24T03:25:14;21.90;89.60
360;DHT22;168;48.872;9.226;2022-07-24T03:27:41;21.90;89.70
360;DHT22;168;48.872;9.226;2022-07-24T03:30:10;21.80;89.70
360;DHT22;168;48.872;9.226;2022-07-24T03:32:37;21.70;89.90
360;DHT22;168;48.872;9.226;2022-07-24T03:35:06;21.60;89.90
360;DHT22;168;48.872;9.226;2022-07-24T03:37:33;21.50;90.00
360;DHT22;168;48.872;9.226;2022-07-24T03:40:04;21.40;90.10
360;DHT22;168;48.872;9.226;2022-07-24T03:42:32;21.40;90.20
360;DHT22;168;48.872;9.226;2022-07-24T03:44:59;21.30;90.30
360;DHT22;168;48.872;9.226;2022-07-24T03:47:27;21.30;90.40
360;DHT22;168;48.872;9.226;2022-07-24T03:49:55;21.30;90.30
360;DHT22;168;48.872;9.226;2022-07-24T03:52:22;21.20;90.40
360;DHT22;168;48.872;9.226;2022-07-24T03:54:50;21.20;90.40
360;DHT22;168;48.872;9.226;2022-07-24T03:57:18;21.20;90.40
360;DHT22;168;48.872;9.226;2022-07-24T03:59:46;21.20;90.50
360;DHT22;168;48.872;9.226;2022-07-24T04:02:14;21.10;90.40
360;DHT22;168;48.872;9.226;2022-07-24T04:04:42;21.10;90.50
360;DHT22;168;48.872;9.226;2022-07-24T04:07:10;21.10;90.50
360;DHT22;168;48.872;9.226;2022-07-24T04:09:37;21.10;90.50
360;DHT22;168;48.872;9.226;2022-07-24T04:12:05;21.20;90.50
360;DHT22;168;48.872;9.226;2022-07-24T04:14:34;21.20;90.40
360;DHT22;168;48.872;9.226;2022-07-24T04:17:02;21.20;90.40
360;DHT22;168;48.872;9.226;2022-07-24T04:19:29;21.20;90.40
360;DHT22;168;48.872;9.226;2022-07-24T04:21:57;21.30;90.40
360;DHT22;168;48.872;9.226;2022-07-24T04:24:24;21.30;90.40
360;DHT22;168;48.872;9.226;2022-07-24T04:26:52;21.30;90.30
360;DHT22;168;48.872;9.226;2022-07-24T04:29:20;21.30;90.30
360;DHT22;168;48.872;9.226;2022-07-24T04:31:49;21.30;90.30
360;DHT22;168;48.872;9.226;2022-07-24T04:34:17;21.30;90.40
360;DHT22;168;48.872;9.226;2022-07-24T04:36:45;21.30;90.40
360;DHT22;168;48.872;9.226;2022-07-24T04:39:12;21.30;90.40
360;DHT22;168;48.872;9.226;2022-07-24T04:41:40;21.30;90.40
360;DHT22;168;48.872;9.226;2022-07-24T04:44:08;21.30;90.40
360;DHT22;168;48.872;9.226;2022-07-24T04:46:35;21.30;90.50
360;DHT22;168;48.872;9.226;2022-07-24T04:49:04;21.30;90.50
360;DHT22;168;48.872;9.226;2022-07-24T04:51:31;21.30;90.30
360;DHT22;168;48.872;9.226;2022-07-24T04:53:59;21.40;90.40
360;DHT22;168;48.872;9.226;2022-07-24T04:56:27;21.40;90.40
360;DHT22;168;48.872;9.226;2022-07-24T04:58:57;21.40;90.30
360;DHT22;168;48.872;9.226;2022-07-24T05:01:25;21.40;90.30
360;DHT22;168;48.872;9.226;2022-07-24T05:03:53;21.50;90.30
360;DHT22;168;48.872;9.226;2022-07-24T05:06:24;21.60;90.30
360;DHT22;168;48.872;9.226;2022-07-24T05:08:51;21.60;90.20
360;DHT22;168;48.872;9.226;2022-07-24T05:11:19;21.70;90.10
360;DHT22;168;48.872;9.226;2022-07-24T05:13:46;21.80;90.10
360;DHT22;168;48.872;9.226;2022-07-24T05:16:14;21.90;90.00
360;DHT22;168;48.872;9.226;2022-07-24T05:18:41;21.90;89.90
360;DHT22;168;48.872;9.226;2022-07-24T05:21:09;22.00;89.90
360;DHT22;168;48.872;9.226;2022-07-24T05:23:38;22.20;89.70
360;DHT22;168;48.872;9.226;2022-07-24T05:26:06;22.40;89.50
360;DHT22;168;48.872;9.226;2022-07-24T05:28:33;22.50;89.40
360;DHT22;168;48.872;9.226;2022-07-24T05:31:01;22.50;89.40
360;DHT22;168;48.872;9.226;2022-07-24T05:33:28;22.50;89.40
360;DHT22;168;48.872;9.226;2022-07-24T05:35:57;22.50;89.30
360;DHT22;168;48.872;9.226;2022-07-24T05:38:24;22.50;89.40
360;DHT22;168;48.872;9.226;2022-07-24T05:40:53;22.50;89.40
360;DHT22;168;48.872;9.226;2022-07-24T05:43:21;22.60;89.40
360;DHT22;168;48.872;9.226;2022-07-24T05:45:48;22.60;89.40
360;DHT22;168;48.872;9.226;2022-07-24T05:48:16;22.60;89.40
360;DHT22;168;48.872;9.226;2022-07-24T05:50:43;22.70;89.30
360;DHT22;168;48.872;9.226;2022-07-24T05:53:11;22.70;89.40
360;DHT22;168;48.872;9.226;2022-07-24T05:55:38;22.70;89.40
360;DHT22;168;48.872;9.226;2022-07-24T05:58:08;22.70;89.30
360;DHT22;168;48.872;9.226;2022-07-24T06:00:35;22.80;89.20
360;DHT22;168;48.872;9.226;2022-07-24T06:03:03;22.90;89.10
360;DHT22;168;48.872;9.226;2022-07-24T06:05:31;23.00;89.00
360;DHT22;168;48.872;9.226;2022-07-24T06:07:58;23.00;88.80
360;DHT22;168;48.872;9.226;2022-07-24T06:10:25;23.10;88.60
360;DHT22;168;48.872;9.226;2022-07-24T06:12:53;23.20;88.50
360;DHT22;168;48.872;9.226;2022-07-24T06:15:22;23.30;88.30
360;DHT22;168;48.872;9.226;2022-07-24T06:17:50;23.40;88.20
360;DHT22;168;48.872;9.226;2022-07-24T06:20:17;23.50;88.20
360;DHT22;168;48.872;9.226;2022-07-24T06:22:45;23.60;87.70
360;DHT22;168;48.872;9.226;2022-07-24T06:25:12;23.70;87.20
360;DHT22;168;48.872;9.226;2022-07-24T06:27:40;23.70;87.10
360;DHT22;168;48.872;9.226;2022-07-24T06:30:13;23.80;87.00
360;DHT22;168;48.872;9.226;2022-07-24T06:32:42;23.90;87.10
360;DHT22;168;48.872;9.226;2022-07-24T06:35:10;24.10;86.60
360;DHT22;168;48.872;9.226;2022-07-24T06:37:37;24.20;86.40
360;DHT22;168;48.872;9.226;2022-07-24T06:40:06;24.30;86.30
360;DHT22;168;48.872;9.226;2022-07-24T06:42:34;24.40;85.70
360;DHT22;168;48.872;9.226;2022-07-24T06:45:02;24.50;85.60
360;DHT22;168;48.872;9.226;2022-07-24T06:47:30;24.60;85.50
360;DHT22;168;48.872;9.226;2022-07-24T06:49:59;24.60;85.40
360;DHT22;168;48.872;9.226;2022-07-24T06:52:26;24.70;85.60
360;DHT22;168;48.872;9.226;2022-07-24T06:54:54;24.80;85.10
360;DHT22;168;48.872;9.226;2022-07-24T06:57:23;24.90;85.10
360;DHT22;168;48.872;9.226;2022-07-24T06:59:52;25.10;84.80
360;DHT22;168;48.872;9.226;2022-07-24T07:02:20;25.20;83.90
360;DHT22;168;48.872;9.226;2022-07-24T07:04:49;25.20;84.00
360;DHT22;168;48.872;9.226;2022-07-24T07:07:17;25.30;83.90
360;DHT22;168;48.872;9.226;2022-07-24T07:09:45;25.40;83.70
360;DHT22;168;48.872;9.226;2022-07-24T07:12:12;25.40;83.20
360;DHT22;168;48.872;9.226;2022-07-24T07:14:40;25.50;83.30
360;DHT22;168;48.872;9.226;2022-07-24T07:17:07;25.60;82.10
360;DHT22;168;48.872;9.226;2022-07-24T07:19:35;25.70;82.60
360;DHT22;168;48.872;9.226;2022-07-24T07:22:02;25.90;82.20
360;DHT22;168;48.872;9.226;2022-07-24T07:24:32;26.00;81.00
360;DHT22;168;48.872;9.226;2022-07-24T07:26:59;26.00;81.30
360;DHT22;168;48.872;9.226;2022-07-24T07:29:27;26.10;78.00
360;DHT22;168;48.872;9.226;2022-07-24T07:31:55;26.20;79.40
360;DHT22;168;48.872;9.226;2022-07-24T07:34:24;26.30;79.10
360;DHT22;168;48.872;9.226;2022-07-24T07:36:52;26.40;78.00
360;DHT22;168;48.872;9.226;2022-07-24T07:39:20;26.40;78.00
360;DHT22;168;48.872;9.226;2022-07-24T07:41:48;26.40;78.20
360;DHT22;168;48.872;9.226;2022-07-24T07:44:16;26.60;76.70
360;DHT22;168;48.872;9.226;2022-07-24T07:46:43;26.60;79.30
360;DHT22;168;48.872;9.226;2022-07-24T07:49:11;26.60;75.00
360;DHT22;168;48.872;9.226;2022-07-24T07:51:39;26.60;77.70
360;DHT22;168;48.872;9.226;2022-07-24T07:54:06;26.70;77.90
360;DHT22;168;48.872;9.226;2022-07-24T07:56:34;26.90;75.80
360;DHT22;168;48.872;9.226;2022-07-24T07:59:03;27.00;76.60
360;DHT22;168;48.872;9.226;2022-07-24T08:01:32;27.10;75.60
360;DHT22;168;48.872;9.226;2022-07-24T08:04:00;27.20;75.30
360;DHT22;168;48.872;9.226;2022-07-24T08:06:28;27.30;76.00
360;DHT22;168;48.872;9.226;2022-07-24T08:08:56;27.40;74.20
360;DHT22;168;48.872;9.226;2022-07-24T08:11:24;27.40;73.40
360;DHT22;168;48.872;9.226;2022-07-24T08:13:52;27.50;74.80
360;DHT22;168;48.872;9.226;2022-07-24T08:16:21;27.40;74.50
360;DHT22;168;48.872;9.226;2022-07-24T08:18:49;27.50;75.20
360;DHT22;168;48.872;9.226;2022-07-24T08:21:16;27.50;73.60
360;DHT22;168;48.872;9.226;2022-07-24T08:23:44;27.50;74.00
360;DHT22;168;48.872;9.226;2022-07-24T08:26:12;27.60;74.20
360;DHT22;168;48.872;9.226;2022-07-24T08:28:42;27.70;69.40
360;DHT22;168;48.872;9.226;2022-07-24T08:31:12;27.70;68.60
360;DHT22;168;48.872;9.226;2022-07-24T08:34:27;27.70;69.40
360;DHT22;168;48.872;9.226;2022-07-24T08:40:00;27.60;72.10
360;DHT22;168;48.872;9.226;2022-07-24T08:42:32;27.70;74.60
360;DHT22;168;48.872;9.226;2022-07-24T08:45:00;27.80;74.10
360;DHT22;168;48.872;9.226;2022-07-24T08:47:28;27.80;71.20
360;DHT22;168;48.872;9.226;2022-07-24T08:49:59;27.90;72.10
360;DHT22;168;48.872;9.226;2022-07-24T08:52:28;28.10;71.60
360;DHT22;168;48.872;9.226;2022-07-24T08:54:57;28.20;70.40
360;DHT22;168;48.872;9.226;2022-07-24T08:57:32;28.30;70.30
360;DHT22;168;48.872;9.226;2022-07-24T09:00:03;28.40;69.90
360;DHT22;168;48.872;9.226;2022-07-24T09:02:31;28.50;69.70
360;DHT22;168;48.872;9.226;2022-07-24T09:05:01;28.60;69.20
360;DHT22;168;48.872;9.226;2022-07-24T09:07:30;28.70;67.80
360;DHT22;168;48.872;9.226;2022-07-24T09:10:13;28.80;67.30
360;DHT22;168;48.872;9.226;2022-07-24T09:12:46;28.70;67.40
360;DHT22;168;48.872;9.226;2022-07-24T09:15:15;28.70;66.40
360;DHT22;168;48.872;9.226;2022-07-24T09:17:58;28.70;66.40
360;DHT22;168;48.872;9.226;2022-07-24T09:20:38;28.50;67.60
360;DHT22;168;48.872;9.226;2022-07-24T09:23:07;28.60;67.40
360;DHT22;168;48.872;9.226;2022-07-24T09:26:02;28.70;67.00
360;DHT22;168;48.872;9.226;2022-07-24T09:28:54;28.70;66.90
360;DHT22;168;48.872;9.226;2022-07-24T09:31:21;28.50;66.50
360;DHT22;168;48.872;9.226;2022-07-24T09:33:49;28.40;67.00
360;DHT22;168;48.872;9.226;2022-07-24T09:36:21;28.50;64.70
360;DHT22;168;48.872;9.226;2022-07-24T09:38:51;28.50;63.40
360;DHT22;168;48.872;9.226;2022-07-24T09:41:20;28.60;63.00
360;DHT22;168;48.872;9.226;2022-07-24T09:43:57;28.50;63.70
360;DHT22;168;48.872;9.226;2022-07-24T09:46:26;28.60;63.60
360;DHT22;168;48.872;9.226;2022-07-24T09:48:56;28.60;64.20
360;DHT22;168;48.872;9.226;2022-07-24T09:51:28;28.80;63.70
360;DHT22;168;48.872;9.226;2022-07-24T09:53:57;28.90;62.80
360;DHT22;168;48.872;9.226;2022-07-24T09:56:25;29.20;62.90
360;DHT22;168;48.872;9.226;2022-07-24T09:58:55;29.40;62.90
360;DHT22;168;48.872;9.226;2022-07-24T10:01:24;29.60;62.60
360;DHT22;168;48.872;9.226;2022-07-24T10:03:54;29.80;61.30
360;DHT22;168;48.872;9.226;2022-07-24T10:06:25;30.10;61.50
360;DHT22;168;48.872;9.226;2022-07-24T10:08:54;30.40;61.30
360;DHT22;168;48.872;9.226;2022-07-24T10:11:22;30.60;60.60
360;DHT22;168;48.872;9.226;2022-07-24T10:13:50;30.60;60.00
360;DHT22;168;48.872;9.226;2022-07-24T10:16:29;30.70;60.10
360;DHT22;168;48.872;9.226;2022-07-24T10:18:58;30.80;60.90
360;DHT22;168;48.872;9.226;2022-07-24T10:21:29;30.80;60.90
360;DHT22;168;48.872;9.226;2022-07-24T10:27:04;30.20;61.90
360;DHT22;168;48.872;9.226;2022-07-24T10:29:34;29.90;61.50
360;DHT22;168;48.872;9.226;2022-07-24T10:32:03;29.90;62.30
360;DHT22;168;48.872;9.226;2022-07-24T10:34:38;29.50;63.00
360;DHT22;168;48.872;9.226;2022-07-24T10:37:26;29.40;63.00
360;DHT22;168;48.872;9.226;2022-07-24T10:40:04;29.40;63.10
360;DHT22;168;48.872;9.226;2022-07-24T10:45:34;29.40;62.70
360;DHT22;168;48.872;9.226;2022-07-24T10:48:26;29.50;62.30
360;DHT22;168;48.872;9.226;2022-07-24T10:51:14;29.60;62.10
360;DHT22;168;48.872;9.226;2022-07-24T10:53:55;29.90;61.90
360;DHT22;168;48.872;9.226;2022-07-24T10:56:26;30.00;61.10
360;DHT22;168;48.872;9.226;2022-07-24T10:59:02;30.10;60.80
360;DHT22;168;48.872;9.226;2022-07-24T11:01:41;30.00;60.40
360;DHT22;168;48.872;9.226;2022-07-24T11:04:28;30.00;60.00
360;DHT22;168;48.872;9.226;2022-07-24T11:07:08;29.90;60.40
360;DHT22;168;48.872;9.226;2022-07-24T11:10:06;30.00;60.80
360;DHT22;168;48.872;9.226;2022-07-24T11:12:41;30.10;59.90
360;DHT22;168;48.872;9.226;2022-07-24T11:15:09;30.20;59.60
360;DHT22;168;48.872;9.226;2022-07-24T11:17:54;30.30;60.00
360;DHT22;168;48.872;9.226;2022-07-24T11:20:22;30.60;58.70
360;DHT22;168;48.872;9.226;2022-07-24T11:22:52;30.80;57.90
360;DHT22;168;48.872;9.226;2022-07-24T11:25:22;30.90;57.60
360;DHT22;168;48.872;9.226;2022-07-24T11:27:57;31.10;57.60
360;DHT22;168;48.872;9.226;2022-07-24T11:30:26;31.10;57.80
360;DHT22;168;48.872;9.226;2022-07-24T11:32:54;31.30;56.60
360;DHT22;168;48.872;9.226;2022-07-24T11:35:29;31.20;56.80
360;DHT22;168;48.872;9.226;2022-07-24T11:37:59;31.30;56.60
360;DHT22;168;48.872;9.226;2022-07-24T11:40:29;31.10;56.90
360;DHT22;168;48.872;9.226;2022-07-24T11:42:57;31.10;57.00
360;DHT22;168;48.872;9.226;2022-07-24T11:45:24;31.10;56.80
360;DHT22;168;48.872;9.226;2022-07-24T11:47:53;31.20;56.80
360;DHT22;168;48.872;9.226;2022-07-24T11:50:23;31.10;56.20
360;DHT22;168;48.872;9.226;2022-07-24T11:52:51;31.10;57.30
360;DHT22;168;48.872;9.226;2022-07-24T11:55:21;31.10;56.40
360;DHT22;168;48.872;9.226;2022-07-24T11:57:51;31.20;56.60
360;DHT22;168;48.872;9.226;2022-07-24T12:00:22;31.30;57.30
360;DHT22;168;48.872;9.226;2022-07-24T12:02:51;31.50;56.20
360;DHT22;168;48.872;9.226;2022-07-24T12:05:24;31.80;55.80
360;DHT22;168;48.872;9.226;2022-07-24T12:07:52;31.80;55.70
360;DHT22;168;48.872;9.226;2022-07-24T12:10:20;31.70;56.10
360;DHT22;168;48.872;9.226;2022-07-24T12:12:50;31.50;55.70
360;DHT22;168;48.872;9.226;2022-07-24T12:15:20;31.40;55.60
360;DHT22;168;48.872;9.226;2022-07-24T12:17:56;31.30;55.80
360;DHT22;168;48.872;9.226;2022-07-24T12:20:25;31.40;56.10
360;DHT22;168;48.872;9.226;2022-07-24T12:22:53;31.40;56.50
360;DHT22;168;48.872;9.226;2022-07-24T12:25:21;31.60;56.10
360;DHT22;168;48.872;9.226;2022-07-24T12:27:50;31.80;55.50
360;DHT22;168;48.872;9.226;2022-07-24T12:30:29;32.00;54.90
360;DHT22;168;48.872;9.226;2022-07-24T12:33:03;32.00;54.50
360;DHT22;168;48.872;9.226;2022-07-24T12:35:32;32.00;54.10
360;DHT22;168;48.872;9.226;2022-07-24T12:38:02;32.00;54.80
360;DHT22;168;48.872;9.226;2022-07-24T12:40:32;32.00;54.90
360;DHT22;168;48.872;9.226;2022-07-24T12:43:09;32.10;55.40
360;DHT22;168;48.872;9.226;2022-07-24T12:45:37;32.20;55.60
360;DHT22;168;48.872;9.226;2022-07-24T12:48:06;32.40;55.10
360;DHT22;168;48.872;9.226;2022-07-24T12:50:34;32.60;54.20
360;DHT22;168;48.872;9.226;2022-07-24T12:53:03;32.50;54.20
360;DHT22;168;48.872;9.226;2022-07-24T12:55:31;32.20;54.40
360;DHT22;168;48.872;9.226;2022-07-24T12:58:00;32.10;54.50
360;DHT22;168;48.872;9.226;2022-07-24T13:00:30;32.00;54.30
360;DHT22;168;48.872;9.226;2022-07-24T13:02:58;32.10;55.00
360;DHT22;168;48.872;9.226;2022-07-24T13:05:39;32.20;54.30
360;DHT22;168;48.872;9.226;2022-07-24T13:08:07;32.20;54.40
360;DHT22;168;48.872;9.226;2022-07-24T13:10:35;32.20;54.20
360;DHT22;168;48.872;9.226;2022-07-24T13:13:02;31.90;54.60
360;DHT22;168;48.872;9.226;2022-07-24T13:15:31;31.70;55.20
360;DHT22;168;48.872;9.226;2022-07-24T13:17:59;31.70;55.80
360;DHT22;168;48.872;9.226;2022-07-24T13:20:26;31.80;55.00
360;DHT22;168;48.872;9.226;2022-07-24T13:22:53;32.20;54.20
360;DHT22;168;48.872;9.226;2022-07-24T13:25:21;32.40;53.70
360;DHT22;168;48.872;9.226;2022-07-24T13:27:48;32.30;53.70
360;DHT22;168;48.872;9.226;2022-07-24T13:30:16;32.30;52.90
360;DHT22;168;48.872;9.226;2022-07-24T13:32:44;32.10;53.40
360;DHT22;168;48.872;9.226;2022-07-24T13:35:12;32.20;53.60
360;DHT22;168;48.872;9.226;2022-07-24T13:37:39;32.30;53.80
360;DHT22;168;48.872;9.226;2022-07-24T13:40:08;32.40;53.00
360;DHT22;168;48.872;9.226;2022-07-24T13:42:38;32.60;52.70
360;DHT22;168;48.872;9.226;2022-07-24T13:45:07;32.60;52.30
360;DHT22;168;48.872;9.226;2022-07-24T13:47:34;32.40;52.90
360;DHT22;168;48.872;9.226;2022-07-24T13:50:04;32.50;53.50
360;DHT22;168;48.872;9.226;2022-07-24T13:52:32;32.60;52.70
360;DHT22;168;48.872;9.226;2022-07-24T13:54:59;32.90;52.00
360;DHT22;168;48.872;9.226;2022-07-24T13:57:26;33.10;52.00
360;DHT22;168;48.872;9.226;2022-07-24T13:59:54;33.20;51.40
360;DHT22;168;48.872;9.226;2022-07-24T14:02:21;33.30;51.70
360;DHT22;168;48.872;9.226;2022-07-24T14:04:49;33.40;51.20
360;DHT22;168;48.872;9.226;2022-07-24T14:07:17;33.60;50.90
360;DHT22;168;48.872;9.226;2022-07-24T14:09:45;33.70;50.50
360;DHT22;168;48.872;9.226;2022-07-24T14:12:12;33.60;50.60
360;DHT22;168;48.872;9.226;2022-07-24T14:14:39;33.50;50.80
360;DHT22;168;48.872;9.226;2022-07-24T14:17:08;33.60;50.70
360;DHT22;168;48.872;9.226;2022-07-24T14:19:35;33.80;51.00
360;DHT22;168;48.872;9.226;2022-07-24T14:22:02;33.90;50.60
360;DHT22;168;48.872;9.226;2022-07-24T14:24:31;33.80;50.00
360;DHT22;168;48.872;9.226;2022-07-24T14:26:59;33.60;50.80
360;DHT22;168;48.872;9.226;2022-07-24T14:29:26;33.60;50.40
360;DHT22;168;48.872;9.226;2022-07-24T14:31:53;33.80;50.40
360;DHT22;168;48.872;9.226;2022-07-24T14:34:21;34.00;49.90
360;DHT22;168;48.872;9.226;2022-07-24T14:36:48;34.30;49.80
360;DHT22;168;48.872;9.226;2022-07-24T14:39:16;34.60;48.80
360;DHT22;168;48.872;9.226;2022-07-24T14:41:46;34.60;48.90
360;DHT22;168;48.872;9.226;2022-07-24T14:44:14;34.70;49.10
360;DHT22;168;48.872;9.226;2022-07-24T14:46:41;34.80;48.50
360;DHT22;168;48.872;9.226;2022-07-24T14:49:09;34.80;48.80
360;DHT22;168;48.872;9.226;2022-07-24T14:51:36;34.90;48.80
360;DHT22;168;48.872;9.226;2022-07-24T14:54:04;35.10;48.40
360;DHT22;168;48.872;9.226;2022-07-24T14:56:32;35.20;48.90
360;DHT22;168;48.872;9.226;2022-07-24T14:59:01;35.30;48.50
360;DHT22;168;48.872;9.226;2022-07-24T15:01:29;35.50;48.90
360;DHT22;168;48.872;9.226;2022-07-24T15:03:56;35.80;48.30
360;DHT22;168;48.872;9.226;2022-07-24T15:06:23;36.10;46.90
360;DHT22;168;48.872;9.226;2022-07-24T15:08:51;35.90;47.20
360;DHT22;168;48.872;9.226;2022-07-24T15:11:18;35.80;47.60
360;DHT22;168;48.872;9.226;2022-07-24T15:13:47;35.80;47.20
360;DHT22;168;48.872;9.226;2022-07-24T15:16:16;36.10;47.00
360;DHT22;168;48.872;9.226;2022-07-24T15:18:43;36.40;46.90
360;DHT22;168;48.872;9.226;2022-07-24T15:21:11;36.60;47.00
360;DHT22;168;48.872;9.226;2022-07-24T15:23:38;36.90;46.40
360;DHT22;168;48.872;9.226;2022-07-24T15:26:06;37.30;45.70
360;DHT22;168;48.872;9.226;2022-07-24T15:28:33;37.70;45.10
360;DHT22;168;48.872;9.226;2022-07-24T15:31:01;38.00;44.40
360;DHT22;168;48.872;9.226;2022-07-24T15:33:29;37.90;44.20
360;DHT22;168;48.872;9.226;2022-07-24T15:36:02;37.90;44.50
360;DHT22;168;48.872;9.226;2022-07-24T15:38:30;38.10;44.30
360;DHT22;168;48.872;9.226;2022-07-24T15:40:57;38.30;43.70
360;DHT22;168;48.872;9.226;2022-07-24T15:43:24;38.50;43.40
360;DHT22;168;48.872;9.226;2022-07-24T15:45:53;38.40;43.40
360;DHT22;168;48.872;9.226;2022-07-24T15:48:20;38.40;43.60
360;DHT22;168;48.872;9.226;2022-07-24T15:50:49;38.20;44.10
360;DHT22;168;48.872;9.226;2022-07-24T15:53:16;38.10;43.70
360;DHT22;168;48.872;9.226;2022-07-24T15:55:44;37.80;44.80
360;DHT22;168;48.872;9.226;2022-07-24T15:58:11;37.70;44.00
360;DHT22;168;48.872;9.226;2022-07-24T16:00:38;37.80;44.70
360;DHT22;168;48.872;9.226;2022-07-24T16:03:06;38.20;44.20
360;DHT22;168;48.872;9.226;2022-07-24T16:05:33;38.50;43.50
360;DHT22;168;48.872;9.226;2022-07-24T16:08:03;38.90;43.70
360;DHT22;168;48.872;9.226;2022-07-24T16:10:30;39.20;42.60
360;DHT22;168;48.872;9.226;2022-07-24T16:12:58;39.50;42.40
360;DHT22;168;48.872;9.226;2022-07-24T16:15:27;39.70;42.10
360;DHT22;168;48.872;9.226;2022-07-24T16:17:55;39.80;41.40
360;DHT22;168;48.872;9.226;2022-07-24T16:20:23;39.90;41.40
360;DHT22;168;48.872;9.226;2022-07-24T16:22:51;40.00;41.10
360;DHT22;168;48.872;9.226;2022-07-24T16:25:21;40.20;41.20
360;DHT22;168;48.872;9.226;2022-07-24T16:27:49;40.50;40.80
360;DHT22;168;48.872;9.226;2022-07-24T16:30:17;40.60;40.80
360;DHT22;168;48.872;9.226;2022-07-24T16:32:45;40.60;40.50
360;DHT22;168;48.872;9.226;2022-07-24T16:35:13;40.50;40.70
360;DHT22;168;48.872;9.226;2022-07-24T16:37:43;40.30;41.00
360;DHT22;168;48.872;9.226;2022-07-24T16:40:11;40.20;40.90
360;DHT22;168;48.872;9.226;2022-07-24T16:42:40;40.00;40.70
360;DHT22;168;48.872;9.226;2022-07-24T16:45:09;39.90;41.10
360;DHT22;168;48.872;9.226;2022-07-24T16:47:36;39.90;41.40
360;DHT22;168;48.872;9.226;2022-07-24T16:50:04;39.90;41.20
360;DHT22;168;48.872;9.226;2022-07-24T16:52:32;39.70;41.20
360;DHT22;168;48.872;9.226;2022-07-24T16:55:00;39.70;41.50